Map

Track Data

SID SEASON NUMBER BASIN SUBBASIN NAME ISO_TIME NATURE LAT LON WMO_WIND WMO_PRES WMO_AGENCY TRACK_TYPE DIST2LAND LANDFALL IFLAG USA_AGENCY USA_ATCF_ID USA_LAT USA_LON USA_RECORD USA_STATUS USA_WIND USA_PRES USA_SSHS USA_R34_NE USA_R34_SE USA_R34_SW USA_R34_NW USA_R50_NE USA_R50_SE USA_R50_SW USA_R50_NW USA_R64_NE USA_R64_SE USA_R64_SW USA_R64_NW USA_POCI USA_ROCI USA_RMW USA_EYE TOKYO_LAT TOKYO_LON TOKYO_GRADE TOKYO_WIND TOKYO_PRES TOKYO_R50_DIR TOKYO_R50_LONG TOKYO_R50_SHORT TOKYO_R30_DIR TOKYO_R30_LONG TOKYO_R30_SHORT TOKYO_LAND CMA_LAT CMA_LON CMA_CAT CMA_WIND CMA_PRES HKO_LAT HKO_LON HKO_CAT HKO_WIND HKO_PRES NEWDELHI_LAT NEWDELHI_LON NEWDELHI_GRADE NEWDELHI_WIND NEWDELHI_PRES NEWDELHI_CI NEWDELHI_DP NEWDELHI_POCI REUNION_LAT REUNION_LON REUNION_TYPE REUNION_WIND REUNION_PRES REUNION_TNUM REUNION_CI REUNION_RMW REUNION_R34_NE REUNION_R34_SE REUNION_R34_SW REUNION_R34_NW REUNION_R50_NE REUNION_R50_SE REUNION_R50_SW REUNION_R50_NW REUNION_R64_NE REUNION_R64_SE REUNION_R64_SW REUNION_R64_NW BOM_LAT BOM_LON BOM_TYPE BOM_WIND BOM_PRES BOM_TNUM BOM_CI BOM_RMW BOM_R34_NE BOM_R34_SE BOM_R34_SW BOM_R34_NW BOM_R50_NE BOM_R50_SE BOM_R50_SW BOM_R50_NW BOM_R64_NE BOM_R64_SE BOM_R64_SW BOM_R64_NW BOM_ROCI BOM_POCI BOM_EYE BOM_POS_METHOD BOM_PRES_METHOD NADI_LAT NADI_LON NADI_CAT NADI_WIND NADI_PRES WELLINGTON_LAT WELLINGTON_LON WELLINGTON_WIND WELLINGTON_PRES DS824_LAT DS824_LON DS824_STAGE DS824_WIND DS824_PRES TD9636_LAT TD9636_LON TD9636_STAGE TD9636_WIND TD9636_PRES TD9635_LAT TD9635_LON TD9635_WIND TD9635_PRES TD9635_ROCI NEUMANN_LAT NEUMANN_LON NEUMANN_CLASS NEUMANN_WIND NEUMANN_PRES MLC_LAT MLC_LON MLC_CLASS MLC_WIND MLC_PRES USA_GUST BOM_GUST BOM_GUST_PER REUNION_GUST REUNION_GUST_PER USA_SEAHGT USA_SEARAD_NE USA_SEARAD_SE USA_SEARAD_SW USA_SEARAD_NW STORM_SPEED STORM_DIR
1971041S12090 1971 17 SI WA IPHIGENIE:TILLY 1971-02-10 00:00:00 TS -12.0000 90.0000 main 1515 1515 _________O__O_ -1 -12.0000 90.0000 TC 25 1002 -12.0000 90.0000 TC 25 1002 8 238
1971041S12090 1971 17 SI MM IPHIGENIE:TILLY 1971-02-10 03:00:00 TS -12.2226 89.6327 main 1560 1560 _________P__P_ -1 -12.2226 89.6327 TC 25 1002 -12.2226 89.6327 TC 25 1002 8 240
1971041S12090 1971 17 SI MM IPHIGENIE:TILLY 1971-02-10 06:00:00 TS -12.4000 89.3000 main 1599 1599 _________O__O_ -1 -12.4000 89.3000 TC 25 1002 -12.4000 89.3000 TC 25 1002 7 244
1971041S12090 1971 17 SI MM IPHIGENIE:TILLY 1971-02-10 09:00:00 TS -12.5074 89.0274 main 1629 1629 _________P__P_ -1 -12.5074 89.0274 TC 27 1001 -12.5074 89.0274 TC 25 1001 5 248
1971041S12090 1971 17 SI MM IPHIGENIE:TILLY 1971-02-10 12:00:00 TS -12.6000 88.8000 main 1652 1652 _________O__O_ -1 -12.6000 88.8000 TC 30 1001 -12.6000 88.8000 TC 25 1001 5 239
1971041S12090 1971 17 SI MM IPHIGENIE:TILLY 1971-02-10 15:00:00 TS -12.7575 88.5925 main 1683 1683 _________P__P_ -1 -12.7575 88.5925 TC 30 1000 -12.7575 88.5925 TC 27 1000 5 232
1971041S12090 1971 17 SI MM IPHIGENIE:TILLY 1971-02-10 18:00:00 TS -12.9000 88.4000 main 1706 1706 _________O__O_ -1 -12.9000 88.4000 TC 30 1000 -12.9000 88.4000 TC 30 1000 4 244
1971041S12090 1971 17 SI MM IPHIGENIE:TILLY 1971-02-10 21:00:00 TS -12.9274 88.2298 main 1721 1721 _________P__P_ -1 -12.9274 88.2298 TC 30 1000 -12.9274 88.2298 TC 30 1000 4 256
1971041S12090 1971 17 SI MM IPHIGENIE:TILLY 1971-02-11 00:00:00 TS -13.0000 88.0000 main 1745 1745 _________O__O_ -1 -13.0000 88.0000 TC 30 1000 -13.0000 88.0000 TC 30 1000 7 241
1971041S12090 1971 17 SI MM IPHIGENIE:TILLY 1971-02-11 03:00:00 TS -13.2476 87.6300 main 1791 1791 _________P__P_ -1 -13.2476 87.6300 TC 32 998 -13.2476 87.6300 TC 32 998 10 232
1971041S12090 1971 17 SI MM IPHIGENIE:TILLY 1971-02-11 06:00:00 TS -13.6000 87.2000 main 1853 1853 _________O__O_ -1 -13.6000 87.2000 TC 35 997 -13.6000 87.2000 TC 35 997 11 226
1971041S12090 1971 17 SI MM IPHIGENIE:TILLY 1971-02-11 09:00:00 TS -14.0149 86.8001 main 1915 1915 _________P__P_ -1 -14.0149 86.8001 TC 37 996 -14.0149 86.8001 TC 37 996 11 224
1971041S12090 1971 17 SI MM IPHIGENIE:TILLY 1971-02-11 12:00:00 TS -14.4000 86.4000 main 1978 1978 _________O__O_ -1 -14.4000 86.4000 TC 40 995 -14.4000 86.4000 TC 40 995 10 231
1971041S12090 1971 17 SI MM IPHIGENIE:TILLY 1971-02-11 15:00:00 TS -14.6450 85.9849 main 2024 2024 _________P__P_ -1 -14.6450 85.9849 TC 40 994 -14.6450 85.9849 TC 40 994 9 243
1971041S12090 1971 17 SI MM IPHIGENIE:TILLY 1971-02-11 18:00:00 TS -14.8000 85.6000 main 2070 2070 _________O__O_ -1 -14.8000 85.6000 TC 40 993 -14.8000 85.6000 TC 40 993 7 250
1971041S12090 1971 17 SI MM IPHIGENIE:TILLY 1971-02-11 21:00:00 TS -14.8849 85.2922 main 2102 2102 _________P__P_ -1 -14.8849 85.2922 TC 42 991 -14.8849 85.2922 TC 42 991 6 251
1971041S12090 1971 17 SI MM IPHIGENIE:TILLY 1971-02-12 00:00:00 TS -15.0000 85.0000 main 2133 2133 _________O__O_ -1 -15.0000 85.0000 TC 45 990 -15.0000 85.0000 TC 45 990 7 237
1971041S12090 1971 17 SI MM IPHIGENIE:TILLY 1971-02-12 03:00:00 TS -15.2850 84.6427 main 2187 2187 _________P__P_ -1 -15.2850 84.6427 TC 50 987 -15.2850 84.6427 TC 50 987 9 216
1971041S12090 1971 17 SI MM IPHIGENIE:TILLY 1971-02-12 06:00:00 TS -15.7091 84.4636 main 2225 2225 O________OO_O_ jtwc_sh SH171971 -16.0000 84.9000 -1 -15.6000 84.3000 TC 55 984 -16.0000 84.9000 2 -15.6000 84.3000 TC 55 984 9 204
1971041S12090 1971 17 SI MM IPHIGENIE:TILLY 1971-02-12 09:00:00 TS -16.0801 84.2736 main 2272 2272 P________PP_P_ SH171971 -16.4476 84.5978 -1 -15.7999 84.0273 TC 60 980 -16.4660 84.6106 2 -15.7999 84.0273 TC 60 980 9 206
1971041S12090 1971 17 SI MM IPHIGENIE:TILLY 1971-02-12 12:00:00 TS -16.4810 84.0676 main 2318 2318 O________OP_O_ jtwc_sh SH171971 -16.9000 84.3000 -1 -16.0000 83.8000 TC 65 977 -16.9255 84.3165 2 -16.0000 83.8000 TC 65 977 10 203
1971041S12090 1971 17 SI MM IPHIGENIE:TILLY 1971-02-12 15:00:00 TS -17.0082 83.8606 main 2373 2373 P________PP_P_ SH171971 -17.3574 84.0073 -1 -16.2751 83.5952 TC 67 973 -17.3722 84.0141 2 -16.2751 83.5952 TC 70 973 11 202
1971041S12090 1971 17 SI MM IPHIGENIE:TILLY 1971-02-12 18:00:00 TS -17.5000 83.6250 main 2435 2435 O________OO_O_ jtwc_sh SH171971 -17.8000 83.7000 -1 -16.6000 83.4000 TC 70 970 -17.8000 83.7000 2 -16.6000 83.4000 TC 75 970 11 206
1971041S12090 1971 17 SI MM IPHIGENIE:TILLY 1971-02-12 21:00:00 TS -17.9909 83.3564 main 2489 2489 P_________P___ SH171971 -18.2074 83.3648 -1 TC -18.2058 83.3699 2 TC 13 208
1971041S12090 1971 17 SI MM IPHIGENIE:TILLY 1971-02-13 00:00:00 TS -18.5998 83.0053 main 2567 2567 O_________P___ jtwc_sh SH171971 -18.6000 83.0000 -1 -18.5993 83.0159 2 12 215
1971041S12090 1971 17 SI MM IPHIGENIE:TILLY 1971-02-13 03:00:00 TS -18.9926 82.6245 main 2598 2563 P_________P___ SH171971 -18.9924 82.6222 -1 -18.9932 82.6290 2 10 225
1971041S12090 1971 17 SI MM IPHIGENIE:TILLY 1971-02-13 06:00:00 TS -19.3429 82.2286 main 2552 2506 O____O____O___ jtwc_sh SH171971 -19.4000 82.2000 -1 -19.0000 82.4000 3 9.90000 -19.4000 82.2000 2 11 228
1971041S12090 1971 17 SI MM IPHIGENIE:TILLY 1971-02-13 09:00:00 TS -19.7495 81.7407 main 2495 2439 P____P____P___ SH171971 -19.8424 81.7223 -1 -19.4655 81.7958 3 -19.8478 81.7223 2 13 230
1971041S12090 1971 17 SI MM IPHIGENIE:TILLY 1971-02-13 12:00:00 TS -20.1683 81.2006 main 2438 2384 O____O____P___ jtwc_sh SH171971 -20.3000 81.2000 -1 -19.9000 81.2000 99 9.90000 -20.3075 81.2026 2 13 232
1971041S12090 1971 17 SI MM IPHIGENIE:TILLY 1971-02-13 15:00:00 TS -20.5675 80.6401 main 2373 2319 P____P____P___ SH171971 -20.7574 80.6573 -1 -20.2796 80.6147 99 -20.7633 80.6565 2 13 233
1971041S12090 1971 17 SI MM IPHIGENIE:TILLY 1971-02-13 18:00:00 TS -20.9600 80.0600 reunion main 2319 2256 O____O____O___ jtwc_sh SH171971 -21.2000 80.1000 -1 -20.6000 80.0000 99 9.90000 -21.2000 80.1000 2 13 236
1971041S12090 1971 17 SI MM IPHIGENIE:TILLY 1971-02-13 21:00:00 TS -21.3007 79.4628 main 2256 2193 P____P____P___ SH171971 -21.6148 79.5497 -1 -20.8347 79.3291 99 -21.6042 79.5563 2 13 239
1971041S12090 1971 17 SI MM IPHIGENIE:TILLY 1971-02-14 00:00:00 TS -21.6374 78.8413 reunion main 2183 2122 O____O____P___ jtwc_sh SH171971 -22.0000 79.0000 -1 -21.1000 78.6000 99 9.90000 -21.9869 79.0064 2 14 239
1971041S12090 1971 17 SI MM IPHIGENIE:TILLY 1971-02-14 03:00:00 TS -22.0212 78.1847 main 2122 2061 P____P____P___ SH171971 -22.3573 78.4496 -1 -21.5202 77.7854 99 -22.3511 78.4532 2 14 237
1971041S12090 1971 17 SI MM IPHIGENIE:TILLY 1971-02-14 06:00:00 TS -22.4200 77.5400 reunion main 2051 2003 O____O____O___ jtwc_sh SH171971 -22.7000 77.9000 -1 -22.0000 77.0000 4 9.90000 -22.7000 77.9000 2 14 235
1971041S12090 1971 17 SI MM IPHIGENIE:TILLY 1971-02-14 09:00:00 TS -22.8081 76.9663 main 2003 1946 P____P____P___ SH171971 -23.0573 77.3498 -1 -22.4416 76.3915 4 -23.0428 77.3491 2 13 234
1971041S12090 1971 17 SI MM IPHIGENIE:TILLY 1971-02-14 12:00:00 TS -23.1943 76.3998 reunion main 1946 1889 O____O____P___ jtwc_sh SH171971 -23.4000 76.8000 -1 -22.9000 75.8000 99 9.90000 -23.3717 76.7988 2 13 235
1971041S12090 1971 17 SI MM IPHIGENIE:TILLY 1971-02-14 15:00:00 TS -23.5720 75.7696 main 1890 1835 P____P____P___ SH171971 -23.7073 76.2497 -1 -23.3778 75.0498 99 -23.6897 76.2491 2 14 236
1971041S12090 1971 17 SI MM IPHIGENIE:TILLY 1971-02-14 18:00:00 TS -23.9600 75.1400 reunion main 1827 1783 O____O____O___ jtwc_sh SH171971 -24.0000 75.7000 -1 -23.9000 74.3000 99 9.90000 -24.0000 75.7000 2 14 234
1971041S12090 1971 17 SI MM IPHIGENIE:TILLY 1971-02-14 21:00:00 TS -24.3833 74.5560 main 1785 1736 P____P____P___ SH171971 -24.2998 75.1497 -1 -24.5071 73.6698 99 -24.3027 75.1410 2 13 231
1971041S12090 1971 17 SI MM IPHIGENIE:TILLY 1971-02-15 00:00:00 TS -24.7999 73.9968 reunion main 1736 1695 O____O____P___ jtwc_sh SH171971 -24.6000 74.6000 -1 -25.1000 73.1000 99 9.90000 -24.5995 74.5838 2 13 232
1971041S12090 1971 17 SI MM IPHIGENIE:TILLY 1971-02-15 03:00:00 TS -25.1892 73.4349 main 1688 1650 P____P____P___ SH171971 -24.8999 74.0423 -1 -25.6248 72.5275 99 -24.8965 74.0347 2 12 234
1971041S12090 1971 17 SI MM IPHIGENIE:TILLY 1971-02-15 06:00:00 TS -25.5200 72.9000 reunion main 1650 1609 O____O____O___ jtwc_sh SH171971 -25.2000 73.5000 -1 -26.0000 72.0000 3 9.90000 -25.2000 73.5000 2 11 238
1971041S12090 1971 17 SI MM IPHIGENIE:TILLY 1971-02-15 09:00:00 TS -25.7577 72.4102 main 1613 1573 P____P____P___ SH171971 -25.4923 72.9921 -1 -26.1446 71.5416 3 -25.5146 72.9838 2 11 244
1971041S12090 1971 17 SI MM IPHIGENIE:TILLY 1971-02-15 12:00:00 TS -25.9950 71.8381 reunion main 1564 1516 O____O____P___ jtwc_sh SH171971 -25.8000 72.5000 -1 -26.2000 71.1000 99 9.90000 -25.8386 72.4823 2 12 245
1971041S12090 1971 17 SI MM IPHIGENIE:TILLY 1971-02-15 15:00:00 TS -26.2640 71.2080 main 1520 1465 P____P____P___ SH171971 -26.1404 72.0032 -1 -26.3498 70.6151 99 -26.1683 71.9896 2 13 247
1971041S12090 1971 17 SI MM IPHIGENIE:TILLY 1971-02-15 18:00:00 TS -26.5000 70.4818 reunion main 1465 1389 O____O____O___ jtwc_sh SH171971 -26.5000 71.5000 -1 -26.5000 70.1000 99 9.90000 -26.5000 71.5000 6 15 257
1971041S12090 1971 17 SI MM IPHIGENIE:TILLY 1971-02-15 21:00:00 TS -26.6000 69.5497 main 1380 1342 _____P________ SH171971 -1 -26.6000 69.5497 99 6 13 261
1971041S12090 1971 17 SI MM IPHIGENIE:TILLY 1971-02-16 00:00:00 TS -26.7000 69.0000 reunion main 1342 1304 _____O________ -1 -26.7000 69.0000 99 9.90000 6 10 260
1971041S12090 1971 17 SI MM IPHIGENIE:TILLY 1971-02-16 03:00:00 TS -26.7748 68.4915 main 1304 1274 _____P________ -1 -26.7748 68.4915 99 6 9 251
1971041S12090 1971 17 SI MM IPHIGENIE:TILLY 1971-02-16 06:00:00 TS -27.0000 68.0000 reunion main 1274 1258 _____O________ -1 -27.0000 68.0000 99 9.90000 12 232
1971041S12090 1971 17 SI MM IPHIGENIE:TILLY 1971-02-16 09:00:00 TS -27.4951 67.4705 main 1264 1256 _____P________ -1 -27.4951 67.4705 99 15 216
1971041S12090 1971 17 SI MM IPHIGENIE:TILLY 1971-02-16 12:00:00 TS -28.2000 67.0000 reunion main 1274 1274 _____O________ -1 -28.2000 67.0000 2 9.90000 17 205
1971041S12090 1971 17 SI MM IPHIGENIE:TILLY 1971-02-16 15:00:00 TS -29.0273 66.6474 main 1306 1306 _____P________ -1 -29.0273 66.6474 2 18 197
1971041S12090 1971 17 SI MM IPHIGENIE:TILLY 1971-02-16 18:00:00 TS -29.9000 66.4000 reunion main 1365 1365 _____O________ -1 -29.9000 66.4000 99 9.90000 17 193
1971041S12090 1971 17 SI MM IPHIGENIE:TILLY 1971-02-16 21:00:00 TS -30.6574 66.2120 main 1421 1421 _____P________ -1 -30.6574 66.2120 99 15 190
1971041S12090 1971 17 SI MM IPHIGENIE:TILLY 1971-02-17 00:00:00 TS -31.4000 66.1000 reunion main 1477 1477 _____O________ -1 -31.4000 66.1000 99 9.90000 15 186
1971041S12090 1971 17 SI MM IPHIGENIE:TILLY 1971-02-17 03:00:00 TS -32.1850 66.0377 main 1544 1544 _____P________ -1 -32.1850 66.0377 99 16 183
1971041S12090 1971 17 SI MM IPHIGENIE:TILLY 1971-02-17 06:00:00 TS -33.0000 66.0000 reunion main 1619 _____O________ -1 -33.0000 66.0000 2 9.90000 16 182

About IBTrACS Database

This database is a web-friendly format of International Best Track Archive for Climate Stewardship (IBTrACS), a global best track data archive curated by NOAA dating back to 1842.

Updated: 2021-12-06